Time;durP1;ratioP1;P1;durP2;ratioP2;P2;SDS_P1;SDS_P2;PMS_P1;PMS_P2;Temp;Humidity;BMP_temperature;BMP_pressure;BME280_temperature;BME280_humidity;BME280_pressure;Samples;Min_cycle;Max_cycle;Signal;HPM_P1;HPM_P2
2022/08/21 00:01:29;;;;;;;4.00;3.23;;;17.20;99.90;;;;;;5030010;28;20475;-50
2022/08/21 00:03:58;;;;;;;4.00;2.90;;;17.20;99.90;;;;;;5029997;28;20520;-50
2022/08/21 00:06:25;;;;;;;5.40;3.20;;;17.10;99.90;;;;;;5030186;28;20546;-50
2022/08/21 00:08:52;;;;;;;4.53;4.10;;;16.90;99.90;;;;;;5029496;28;20979;-50
2022/08/21 00:11:21;;;;;;;5.80;5.17;;;16.90;99.90;;;;;;5029786;28;20458;-50
2022/08/21 00:13:48;;;;;;;5.20;4.00;;;16.80;99.90;;;;;;5029835;28;20446;-50
2022/08/21 00:16:15;;;;;;;4.47;4.07;;;16.80;99.90;;;;;;5029719;28;20445;-50
2022/08/21 00:18:42;;;;;;;4.73;4.33;;;16.90;99.90;;;;;;5029398;28;21034;-49
2022/08/21 00:21:12;;;;;;;5.07;4.30;;;17.00;99.90;;;;;;5029620;28;20520;-50
2022/08/21 00:23:40;;;;;;;5.60;4.50;;;17.30;99.90;;;;;;5029701;28;20482;-52
2022/08/21 00:26:08;;;;;;;5.60;4.77;;;17.40;99.90;;;;;;5029361;28;20196;-52
2022/08/21 00:28:35;;;;;;;5.27;4.47;;;17.30;99.90;;;;;;5029728;28;20478;-50
2022/08/21 00:31:03;;;;;;;5.33;3.97;;;17.00;99.90;;;;;;5029403;28;20450;-50
2022/08/21 00:33:31;;;;;;;4.30;3.63;;;16.70;99.90;;;;;;5029618;28;20454;-50
2022/08/21 00:35:59;;;;;;;4.80;3.80;;;16.60;99.90;;;;;;5029725;28;20500;-50
2022/08/21 00:38:27;;;;;;;4.50;4.10;;;16.50;99.90;;;;;;5029617;28;20199;-50
2022/08/21 00:40:56;;;;;;;4.50;4.10;;;16.70;99.90;;;;;;5029366;28;20727;-50
2022/08/21 00:43:28;;;;;;;5.20;3.80;;;16.60;99.90;;;;;;5029606;28;20245;-50
2022/08/21 00:45:56;;;;;;;5.67;3.50;;;16.70;99.90;;;;;;5029720;28;20438;-50
2022/08/21 00:48:23;;;;;;;4.22;3.30;;;16.70;99.90;;;;;;5029349;28;20556;-53
2022/08/21 00:50:57;;;;;;;3.38;3.08;;;16.70;99.90;;;;;;5029253;28;20211;-50
2022/08/21 00:53:26;;;;;;;3.50;3.20;;;17.00;99.90;;;;;;5029376;28;20199;-51
2022/08/21 00:55:55;;;;;;;3.60;2.97;;;17.00;99.90;;;;;;5029479;28;20821;-50
2022/08/21 00:58:23;;;;;;;3.90;2.60;;;16.80;99.90;;;;;;5029371;28;20488;-50
2022/08/21 01:00:51;;;;;;;3.40;2.70;;;16.80;99.90;;;;;;5029166;28;20454;-51
2022/08/21 01:03:24;;;;;;;3.00;2.70;;;16.90;99.90;;;;;;5029292;28;20451;-50
2022/08/21 01:05:53;;;;;;;2.43;2.10;;;16.80;99.90;;;;;;5029188;28;20917;-49
2022/08/21 01:08:21;;;;;;;3.83;2.40;;;16.80;99.90;;;;;;5029250;28;20964;-50
2022/08/21 01:10:49;;;;;;;3.10;2.53;;;17.00;99.90;;;;;;5029542;28;20456;-51
2022/08/21 01:13:19;;;;;;;6.40;2.57;;;17.00;99.90;;;;;;5029338;28;20447;-51
2022/08/21 01:15:49;;;;;;;6.30;3.00;;;16.80;99.90;;;;;;5029140;28;20431;-50
2022/08/21 01:18:20;;;;;;;3.40;2.50;;;16.70;99.90;;;;;;5029339;28;20923;-50
2022/08/21 01:21:01;;;;;;;2.50;2.17;;;16.60;99.90;;;;;;5028967;28;20434;-50
2022/08/21 01:23:28;;;;;;;3.53;2.37;;;16.80;99.90;;;;;;5031563;28;20435;-50
2022/08/21 01:25:56;;;;;;;2.53;2.10;;;16.90;99.90;;;;;;5032613;28;20450;-50
2022/08/21 01:28:25;;;;;;;2.33;1.90;;;17.00;99.90;;;;;;5032508;28;20477;-50
2022/08/21 01:30:54;;;;;;;2.53;2.10;;;16.70;99.90;;;;;;5032415;28;20450;-50
2022/08/21 01:33:24;;;;;;;5.23;2.77;;;16.70;99.90;;;;;;5032639;28;20985;-50
2022/08/21 01:35:52;;;;;;;3.50;2.30;;;16.80;99.90;;;;;;5032552;28;20507;-53
2022/08/21 01:38:20;;;;;;;4.40;2.50;;;16.80;99.90;;;;;;5032423;28;20206;-50
2022/08/21 01:40:47;;;;;;;4.50;3.37;;;16.80;99.90;;;;;;5032177;28;20682;-50
2022/08/21 01:43:14;;;;;;;4.33;2.53;;;16.70;99.90;;;;;;5032447;28;20481;-52
2022/08/21 01:45:41;;;;;;;3.13;2.30;;;16.70;99.90;;;;;;5032302;28;20446;-50
2022/08/21 01:48:08;;;;;;;3.80;2.70;;;16.70;99.90;;;;;;5032316;28;20655;-50
2022/08/21 01:50:36;;;;;;;8.52;2.58;;;16.80;99.90;;;;;;5031888;28;20441;-50
2022/08/21 01:53:03;;;;;;;3.03;2.50;;;16.80;99.90;;;;;;5032197;28;20273;-50
2022/08/21 01:55:32;;;;;;;3.40;2.13;;;16.80;99.90;;;;;;5032331;28;20453;-50
2022/08/21 01:58:00;;;;;;;2.83;2.57;;;16.70;99.90;;;;;;5032164;28;20446;-51
2022/08/21 02:00:27;;;;;;;2.93;2.17;;;16.80;99.90;;;;;;5031935;28;20422;-52
2022/08/21 02:02:55;;;;;;;4.33;3.30;;;16.90;99.90;;;;;;5032057;28;20554;-50
2022/08/21 02:05:22;;;;;;;3.70;2.30;;;16.70;99.90;;;;;;5031561;28;21143;-50
2022/08/21 02:07:51;;;;;;;2.93;2.50;;;16.70;99.90;;;;;;5032024;28;20473;-50
2022/08/21 02:10:22;;;;;;;3.17;2.60;;;16.60;99.90;;;;;;5031751;28;20438;-50
2022/08/21 02:12:51;;;;;;;5.40;2.43;;;16.60;99.90;;;;;;5031787;28;20502;-50
2022/08/21 02:15:18;;;;;;;3.47;2.63;;;16.60;99.90;;;;;;5031783;28;20488;-50
2022/08/21 02:17:47;;;;;;;3.20;2.30;;;16.80;99.90;;;;;;5031803;28;20465;-50
2022/08/21 02:20:18;;;;;;;3.57;2.47;;;16.80;99.90;;;;;;5031348;28;20468;-51
2022/08/21 02:22:45;;;;;;;2.67;2.20;;;16.80;99.90;;;;;;5031557;28;20466;-50
2022/08/21 02:25:13;;;;;;;3.00;1.90;;;17.00;99.90;;;;;;5031682;28;20997;-50
2022/08/21 02:27:41;;;;;;;2.70;2.03;;;16.90;99.90;;;;;;5031188;28;20446;-50
2022/08/21 02:30:13;;;;;;;2.80;2.10;;;16.70;99.90;;;;;;5031021;28;20486;-50
2022/08/21 02:32:42;;;;;;;2.30;2.10;;;16.90;99.90;;;;;;5031479;28;20528;-51
2022/08/21 02:35:10;;;;;;;3.00;2.20;;;16.90;99.90;;;;;;5031333;28;20446;-49
2022/08/21 02:37:44;;;;;;;3.00;1.70;;;17.00;99.90;;;;;;5031580;28;20508;-50
2022/08/21 02:40:12;;;;;;;3.00;1.70;;;16.70;99.90;;;;;;5031067;28;20430;-50
2022/08/21 02:42:39;;;;;;;2.07;1.70;;;16.60;99.90;;;;;;5031492;28;20501;-50
2022/08/21 02:45:07;;;;;;;2.37;1.90;;;16.60;99.90;;;;;;5031246;28;20959;-50
2022/08/21 02:47:36;;;;;;;2.77;1.90;;;16.60;99.90;;;;;;5031251;28;20537;-50
2022/08/21 02:50:04;;;;;;;1.57;1.47;;;16.40;99.90;;;;;;5030709;28;20512;-50
2022/08/21 02:52:32;;;;;;;2.20;1.80;;;16.30;99.90;;;;;;5030971;28;20474;-50
2022/08/21 02:54:59;;;;;;;3.25;2.08;;;16.20;99.90;;;;;;5031087;28;20450;-51
2022/08/21 02:57:26;;;;;;;3.13;1.80;;;16.20;99.90;;;;;;5031088;28;20202;-51
2022/08/21 02:59:53;;;;;;;3.00;1.60;;;16.40;99.90;;;;;;5030782;28;20449;-50
2022/08/21 03:02:21;;;;;;;1.70;1.33;;;16.40;99.90;;;;;;5030942;28;20978;-50
2022/08/21 03:04:49;;;;;;;3.43;1.37;;;16.30;99.90;;;;;;5030910;28;20441;-51
2022/08/21 03:07:16;;;;;;;2.43;1.70;;;16.20;99.90;;;;;;5030648;28;20451;-51
2022/08/21 03:09:43;;;;;;;3.20;2.00;;;16.20;99.90;;;;;;5030306;28;20473;-50
2022/08/21 03:12:10;;;;;;;2.30;1.70;;;16.30;99.90;;;;;;5030425;28;20493;-50
2022/08/21 03:14:38;;;;;;;2.40;1.97;;;16.40;99.90;;;;;;5030617;28;20492;-50
2022/08/21 03:17:06;;;;;;;2.00;1.30;;;16.30;99.90;;;;;;5030726;28;20823;-50
2022/08/21 03:19:34;;;;;;;2.70;1.67;;;16.40;99.90;;;;;;5030227;28;20446;-50
2022/08/21 03:22:02;;;;;;;2.88;1.50;;;16.50;99.90;;;;;;5030425;28;20473;-50
2022/08/21 03:24:29;;;;;;;2.47;1.73;;;16.50;99.90;;;;;;5030637;28;20261;-50
2022/08/21 03:26:56;;;;;;;3.10;1.33;;;16.60;99.90;;;;;;5030168;28;20457;-49
2022/08/21 03:29:23;;;;;;;1.90;1.60;;;16.80;99.90;;;;;;5030019;28;20700;-50
2022/08/21 03:31:52;;;;;;;2.30;1.70;;;16.60;99.90;;;;;;5030300;28;20466;-50
2022/08/21 03:34:19;;;;;;;2.00;1.30;;;16.40;99.90;;;;;;5030450;28;20541;-51
2022/08/21 03:36:46;;;;;;;2.07;1.87;;;16.10;99.90;;;;;;5030209;28;20461;-50
2022/08/21 03:39:14;;;;;;;3.37;1.77;;;15.90;99.90;;;;;;5030383;28;20458;-50
2022/08/21 03:41:41;;;;;;;2.07;1.60;;;15.90;99.90;;;;;;5030240;28;20467;-52
2022/08/21 03:44:08;;;;;;;3.53;1.80;;;15.90;99.90;;;;;;5030384;28;20521;-51
2022/08/21 03:46:35;;;;;;;2.37;1.90;;;16.10;99.90;;;;;;5029633;28;20454;-50
2022/08/21 03:49:03;;;;;;;1.80;1.47;;;16.10;99.90;;;;;;5029822;28;20559;-49
2022/08/21 03:51:32;;;;;;;1.75;1.35;;;16.10;99.90;;;;;;5030099;28;20467;-50
2022/08/21 03:53:59;;;;;;;3.43;1.60;;;16.10;99.90;;;;;;5030179;28;20191;-50
2022/08/21 03:56:27;;;;;;;3.03;1.50;;;16.10;99.90;;;;;;5030130;28;20478;-50
2022/08/21 03:58:55;;;;;;;2.40;1.67;;;15.90;99.90;;;;;;5029773;28;20810;-52
2022/08/21 04:01:22;;;;;;;10.90;2.03;;;16.00;99.90;;;;;;5029792;28;20461;-50
2022/08/21 04:03:49;;;;;;;3.43;2.07;;;15.90;99.90;;;;;;5029676;28;20606;-50
2022/08/21 04:06:16;;;;;;;2.60;1.63;;;16.00;99.90;;;;;;5029757;28;20500;-51
2022/08/21 04:08:43;;;;;;;2.57;1.70;;;16.30;99.90;;;;;;5029586;28;20527;-51
2022/08/21 04:13:41;;;;;;;4.70;1.60;;;16.60;99.90;;;;;;5067806;22;20569;-50
2022/08/21 04:16:08;;;;;;;2.45;1.88;;;16.30;99.90;;;;;;5029798;28;20473;-50
2022/08/21 04:18:35;;;;;;;3.70;1.30;;;16.20;99.90;;;;;;5029793;28;20310;-49
2022/08/21 04:21:04;;;;;;;1.70;1.20;;;16.20;99.90;;;;;;5029621;28;20446;-50
2022/08/21 04:23:31;;;;;;;1.70;1.10;;;16.20;99.90;;;;;;5030140;28;20549;-51
2022/08/21 04:25:58;;;;;;;3.10;1.17;;;16.40;99.90;;;;;;5029395;28;20454;-50
2022/08/21 04:28:27;;;;;;;2.83;1.40;;;16.20;99.90;;;;;;5029878;28;20442;-50
2022/08/21 04:30:56;;;;;;;4.85;1.65;;;16.30;99.90;;;;;;5029426;28;20932;-50
2022/08/21 04:33:24;;;;;;;2.10;1.60;;;16.10;99.90;;;;;;5029621;28;20769;-50
2022/08/21 04:35:51;;;;;;;1.80;1.33;;;16.00;99.90;;;;;;5029591;28;20541;-50
2022/08/21 04:38:20;;;;;;;2.40;1.30;;;16.00;99.90;;;;;;5029531;28;20437;-50
2022/08/21 04:40:48;;;;;;;2.03;1.53;;;16.10;99.90;;;;;;5029295;28;20426;-50
2022/08/21 04:43:15;;;;;;;2.00;1.30;;;16.10;99.90;;;;;;5029684;28;20458;-49
2022/08/21 04:45:45;;;;;;;1.60;1.30;;;16.30;99.90;;;;;;5029575;28;20510;-50
2022/08/21 04:48:16;;;;;;;2.13;1.53;;;16.30;99.90;;;;;;5029576;28;20446;-50
2022/08/21 04:50:47;;;;;;;2.90;2.00;;;16.10;99.90;;;;;;5029154;28;20543;-50
2022/08/21 04:53:20;;;;;;;2.70;1.30;;;16.00;99.90;;;;;;5029410;28;20457;-51
2022/08/21 04:55:49;;;;;;;2.30;1.77;;;16.10;99.90;;;;;;5029556;28;20863;-50
2022/08/21 04:58:19;;;;;;;2.30;1.70;;;16.10;99.90;;;;;;5031666;28;20449;-52
2022/08/21 05:00:47;;;;;;;3.20;1.50;;;15.90;99.90;;;;;;5032995;28;20438;-50
2022/08/21 05:03:17;;;;;;;2.10;1.40;;;16.00;99.90;;;;;;5033075;28;20470;-50
2022/08/21 05:05:44;;;;;;;4.73;2.97;;;16.30;99.90;;;;;;5032825;28;20520;-49
2022/08/21 05:08:15;;;;;;;2.40;1.23;;;16.00;99.90;;;;;;5033116;28;20450;-50
2022/08/21 05:10:44;;;;;;;1.60;1.20;;;15.70;99.90;;;;;;5032734;28;20560;-51
2022/08/21 05:13:12;;;;;;;1.97;1.60;;;16.00;99.90;;;;;;5033298;28;20821;-49
2022/08/21 05:15:39;;;;;;;2.43;1.47;;;16.00;99.90;;;;;;5032975;28;20452;-52
2022/08/21 05:18:07;;;;;;;2.33;1.90;;;16.10;99.90;;;;;;5032958;28;20449;-50
2022/08/21 05:20:35;;;;;;;2.23;1.70;;;15.90;99.90;;;;;;5032762;28;20438;-50
2022/08/21 05:23:07;;;;;;;1.90;1.60;;;15.70;99.90;;;;;;5032743;28;20890;-50
2022/08/21 05:25:34;;;;;;;2.73;1.90;;;15.90;99.90;;;;;;5032583;28;20438;-50
2022/08/21 05:28:01;;;;;;;3.03;2.00;;;16.00;99.90;;;;;;5032257;28;20430;-50
2022/08/21 05:30:29;;;;;;;3.40;2.03;;;16.10;99.90;;;;;;5032429;28;20478;-50
2022/08/21 05:32:58;;;;;;;2.20;1.70;;;16.10;99.90;;;;;;5032592;28;20454;-50
2022/08/21 05:35:26;;;;;;;2.35;1.85;;;16.20;99.90;;;;;;5032686;28;20452;-50
2022/08/21 05:37:55;;;;;;;3.17;1.93;;;16.30;99.90;;;;;;5032483;28;20203;-51
2022/08/21 05:40:23;;;;;;;4.37;2.10;;;16.40;99.90;;;;;;5032880;28;20650;-50
2022/08/21 05:42:50;;;;;;;7.00;3.07;;;16.50;99.90;;;;;;5032555;28;20478;-50
2022/08/21 05:45:17;;;;;;;2.47;1.70;;;16.30;99.90;;;;;;5032486;28;20709;-49
2022/08/21 05:47:44;;;;;;;2.50;1.73;;;16.40;99.90;;;;;;5032116;28;20901;-50
2022/08/21 05:50:12;;;;;;;2.67;1.80;;;16.40;99.90;;;;;;5032406;28;20462;-53
2022/08/21 05:52:39;;;;;;;2.73;1.87;;;16.30;99.90;;;;;;5032110;28;20450;-50
2022/08/21 05:55:08;;;;;;;2.20;1.50;;;16.20;99.90;;;;;;5032091;28;20844;-49
2022/08/21 05:57:35;;;;;;;2.00;1.43;;;16.10;99.90;;;;;;5032207;28;20458;-50
2022/08/21 06:00:03;;;;;;;2.43;2.00;;;16.10;99.90;;;;;;5031822;28;20802;-50
2022/08/21 06:02:30;;;;;;;1.77;1.30;;;16.30;99.90;;;;;;5031925;28;20478;-51
2022/08/21 06:04:58;;;;;;;3.23;1.60;;;16.20;99.90;;;;;;5032023;28;20837;-50
2022/08/21 06:07:25;;;;;;;2.57;2.13;;;16.20;99.90;;;;;;5031620;28;20819;-50
2022/08/21 06:09:52;;;;;;;2.33;1.80;;;16.00;99.90;;;;;;5031181;28;21052;-50
2022/08/21 06:12:20;;;;;;;2.70;1.90;;;16.00;99.90;;;;;;5031631;28;20903;-50
2022/08/21 06:14:47;;;;;;;3.35;1.90;;;16.10;99.90;;;;;;5032106;28;20465;-51
2022/08/21 06:17:15;;;;;;;2.60;1.50;;;16.00;99.90;;;;;;5031770;28;20195;-50
2022/08/21 06:19:42;;;;;;;2.83;2.20;;;16.10;99.90;;;;;;5031625;28;20446;-50
2022/08/21 06:22:09;;;;;;;2.27;1.53;;;16.00;99.90;;;;;;5031373;28;20988;-50
2022/08/21 06:24:36;;;;;;;2.23;1.80;;;15.80;99.90;;;;;;5031655;28;20434;-50
2022/08/21 06:27:07;;;;;;;1.57;1.47;;;15.70;99.90;;;;;;5031289;28;20492;-50
2022/08/21 06:29:36;;;;;;;2.50;1.47;;;15.80;99.90;;;;;;5031390;28;20470;-50
2022/08/21 06:32:03;;;;;;;2.00;1.40;;;15.90;99.90;;;;;;5031447;28;20462;-50
2022/08/21 06:34:30;;;;;;;4.07;2.63;;;15.90;99.90;;;;;;5031390;28;20920;-49
2022/08/21 06:36:57;;;;;;;2.83;1.77;;;15.80;99.90;;;;;;5031899;28;20499;-50
2022/08/21 06:39:24;;;;;;;2.30;1.73;;;15.70;99.90;;;;;;5031227;28;20473;-53
2022/08/21 06:41:51;;;;;;;2.27;1.43;;;15.70;99.90;;;;;;5031251;28;20473;-51
2022/08/21 06:44:18;;;;;;;2.10;1.50;;;15.80;99.90;;;;;;5031327;28;20613;-50
2022/08/21 06:46:47;;;;;;;2.00;1.10;;;15.70;99.90;;;;;;5031308;28;20446;-51
2022/08/21 06:49:14;;;;;;;3.17;1.70;;;15.80;99.90;;;;;;5031016;28;20507;-51
2022/08/21 06:51:41;;;;;;;1.50;1.23;;;15.90;99.90;;;;;;5031009;28;20504;-50
2022/08/21 06:54:08;;;;;;;1.80;1.40;;;15.90;99.90;;;;;;5031250;28;20489;-49
2022/08/21 06:56:38;;;;;;;3.30;1.40;;;16.00;99.90;;;;;;5031155;28;20450;-50
2022/08/21 06:59:05;;;;;;;2.63;1.20;;;16.10;99.90;;;;;;5030768;28;20427;-50
2022/08/21 07:01:32;;;;;;;1.50;1.10;;;16.30;99.90;;;;;;5030932;28;20935;-51
2022/08/21 07:04:01;;;;;;;2.95;1.42;;;16.20;99.90;;;;;;5031147;28;20529;-50
2022/08/21 07:06:28;;;;;;;1.60;1.00;;;16.00;99.90;;;;;;5030872;28;20203;-50
2022/08/21 07:08:55;;;;;;;2.40;1.30;;;16.00;99.90;;;;;;5030772;28;20718;-50
2022/08/21 07:11:24;;;;;;;1.60;1.17;;;16.10;99.90;;;;;;5030451;28;20531;-50
2022/08/21 07:13:54;;;;;;;1.77;1.40;;;16.40;99.90;;;;;;5031190;28;20557;-50
2022/08/21 07:16:21;;;;;;;1.70;1.50;;;16.50;99.90;;;;;;5030840;28;20498;-52
2022/08/21 07:18:49;;;;;;;2.23;1.20;;;16.90;99.90;;;;;;5030495;28;20450;-50
2022/08/21 07:21:17;;;;;;;2.23;1.07;;;17.00;99.90;;;;;;5029941;28;20447;-50
2022/08/21 07:23:47;;;;;;;1.53;1.10;;;17.20;99.90;;;;;;5030603;28;20544;-50
2022/08/21 07:26:16;;;;;;;1.67;1.20;;;17.20;99.90;;;;;;5030106;28;20488;-49
2022/08/21 07:28:43;;;;;;;1.70;1.10;;;16.90;99.90;;;;;;5030394;28;20524;-50
2022/08/21 07:31:13;;;;;;;1.93;1.40;;;16.90;99.90;;;;;;5030302;28;20833;-50
2022/08/21 07:33:41;;;;;;;1.43;1.13;;;16.80;99.90;;;;;;5030454;28;20446;-50
2022/08/21 07:36:08;;;;;;;1.57;1.17;;;16.90;99.90;;;;;;5030245;28;20537;-51
2022/08/21 07:38:37;;;;;;;2.00;1.40;;;16.80;99.90;;;;;;5030318;28;20458;-50
2022/08/21 07:41:11;;;;;;;1.83;1.27;;;16.80;99.90;;;;;;5029973;28;20450;-51
2022/08/21 07:43:38;;;;;;;1.50;1.13;;;16.80;99.90;;;;;;5030372;28;20557;-50
2022/08/21 07:46:06;;;;;;;1.43;1.03;;;17.00;99.90;;;;;;5030297;28;20450;-51
2022/08/21 07:48:33;;;;;;;1.50;1.30;;;17.20;99.90;;;;;;5030210;28;20541;-52
2022/08/21 07:51:06;;;;;;;1.77;1.23;;;17.20;99.90;;;;;;5029682;28;20475;-50
2022/08/21 07:53:33;;;;;;;2.07;1.40;;;17.30;99.90;;;;;;5030097;28;20532;-49
2022/08/21 07:56:02;;;;;;;2.20;1.93;;;17.50;99.90;;;;;;5030237;28;20442;-50
2022/08/21 07:58:29;;;;;;;2.27;1.23;;;17.40;99.90;;;;;;5030056;28;20461;-49
2022/08/21 08:00:56;;;;;;;2.40;1.07;;;17.30;99.90;;;;;;5029889;28;20446;-50
2022/08/21 08:03:23;;;;;;;1.60;1.30;;;17.40;99.90;;;;;;5029934;28;21009;-49
2022/08/21 08:05:50;;;;;;;2.07;1.53;;;17.60;99.90;;;;;;5029964;28;20504;-50
2022/08/21 08:08:17;;;;;;;1.77;1.43;;;17.70;99.90;;;;;;5030082;28;20461;-50
2022/08/21 08:10:45;;;;;;;2.57;1.33;;;17.80;99.90;;;;;;5029577;28;20478;-50
2022/08/21 08:13:14;;;;;;;2.00;1.37;;;17.70;99.90;;;;;;5030019;28;20480;-51
2022/08/21 08:15:41;;;;;;;1.90;1.40;;;17.80;99.90;;;;;;5030014;28;20470;-50
2022/08/21 08:18:08;;;;;;;2.30;1.30;;;17.80;99.90;;;;;;5029798;28;20441;-50
2022/08/21 08:20:35;;;;;;;2.40;1.60;;;17.60;99.90;;;;;;5028360;28;20454;-51
2022/08/21 08:23:02;;;;;;;2.43;1.83;;;17.90;99.90;;;;;;5027940;28;20462;-51
2022/08/21 08:25:29;;;;;;;1.87;1.53;;;17.90;99.90;;;;;;5029706;28;20441;-50
2022/08/21 08:27:56;;;;;;;1.53;1.20;;;18.00;99.90;;;;;;5029327;28;20500;-50
2022/08/21 08:30:25;;;;;;;2.60;1.57;;;18.10;99.90;;;;;;5029104;28;20893;-53
2022/08/21 08:32:52;;;;;;;2.03;1.48;;;18.30;99.90;;;;;;5032825;28;20611;-50
2022/08/21 08:35:19;;;;;;;2.50;1.00;;;18.40;99.90;;;;;;5033843;28;20682;-50
2022/08/21 08:37:46;;;;;;;1.80;1.40;;;18.50;99.90;;;;;;5033497;28;20649;-49
2022/08/21 08:40:19;;;;;;;1.57;1.17;;;18.50;99.90;;;;;;5033310;28;20438;-49
2022/08/21 08:42:50;;;;;;;3.03;1.53;;;18.90;99.90;;;;;;5033418;28;20519;-49
2022/08/21 08:45:21;;;;;;;2.57;1.47;;;19.10;99.90;;;;;;5033496;28;20430;-50
2022/08/21 08:47:57;;;;;;;2.20;1.40;;;19.10;99.90;;;;;;5033289;28;20547;-52
2022/08/21 08:50:28;;;;;;;2.23;1.83;;;18.90;99.90;;;;;;5033147;28;21000;-51
2022/08/21 08:53:01;;;;;;;1.40;1.30;;;18.80;99.90;;;;;;5033092;28;20547;-51
2022/08/21 08:55:34;;;;;;;1.90;1.50;;;18.70;99.90;;;;;;5033297;28;20515;-51
2022/08/21 08:58:03;;;;;;;2.57;1.60;;;18.90;99.90;;;;;;5033046;28;20450;-52
2022/08/21 09:00:31;;;;;;;2.13;1.70;;;18.80;99.90;;;;;;5033119;28;20884;-50
2022/08/21 09:03:02;;;;;;;2.15;1.50;;;19.40;99.90;;;;;;5032905;28;21057;-50
2022/08/21 09:05:33;;;;;;;2.57;1.80;;;19.00;99.90;;;;;;5032745;28;20225;-50
2022/08/21 09:08:21;;;;;;;2.17;1.50;;;18.90;99.90;;;;;;5033145;28;20484;-51
2022/08/21 09:10:58;;;;;;;1.77;1.37;;;19.00;99.90;;;;;;5032567;28;20470;-50
2022/08/21 09:13:35;;;;;;;1.80;1.50;;;19.20;99.90;;;;;;5032714;28;20531;-50
2022/08/21 09:16:12;;;;;;;1.70;1.40;;;19.50;99.90;;;;;;5032834;28;20571;-51
2022/08/21 09:18:51;;;;;;;2.40;1.37;;;19.20;99.90;;;;;;5032993;28;20527;-50
2022/08/21 09:21:26;;;;;;;1.73;1.40;;;19.30;99.90;;;;;;5032290;28;20851;-50
2022/08/21 09:24:00;;;;;;;2.40;1.70;;;19.20;99.90;;;;;;5032765;28;20818;-51
2022/08/21 09:26:33;;;;;;;6.20;5.60;;;19.60;99.90;;;;;;5032617;28;20441;-50
2022/08/21 09:29:01;;;;;;;6.23;2.47;;;19.60;99.90;;;;;;5032751;28;20437;-51
2022/08/21 09:31:31;;;;;;;2.20;1.80;;;19.80;99.90;;;;;;5032504;28;20493;-52
2022/08/21 09:34:02;;;;;;;2.17;1.83;;;20.10;99.90;;;;;;5033080;28;20437;-51
2022/08/21 09:36:36;;;;;;;2.00;1.60;;;20.10;99.90;;;;;;5033008;28;20489;-51
2022/08/21 09:39:04;;;;;;;2.53;1.50;;;20.10;99.90;;;;;;5032472;28;20466;-51
2022/08/21 09:41:34;;;;;;;1.57;1.17;;;20.00;99.90;;;;;;5032289;28;20508;-50
2022/08/21 09:44:01;;;;;;;1.77;1.53;;;20.10;99.90;;;;;;5031767;28;20454;-50
2022/08/21 09:46:29;;;;;;;2.10;1.40;;;20.20;99.90;;;;;;5032255;28;20656;-51
2022/08/21 09:48:59;;;;;;;2.17;1.60;;;20.50;99.90;;;;;;5031996;28;20797;-51
2022/08/21 09:51:30;;;;;;;2.20;1.30;;;20.60;99.90;;;;;;5032039;28;20474;-51
2022/08/21 09:54:12;;;;;;;1.60;1.50;;;20.50;99.90;;;;;;5032690;28;20482;-50
2022/08/21 09:59:37;;;;;;;1.90;1.50;;;20.50;99.90;;;;;;5031904;28;20500;-50
2022/08/21 10:02:28;;;;;;;1.58;1.30;;;20.60;99.90;;;;;;5032033;28;20480;-50
2022/08/21 10:04:58;;;;;;;1.67;1.30;;;21.10;99.90;;;;;;5031999;28;20711;-50
2022/08/21 10:07:30;;;;;;;1.70;1.27;;;21.50;99.90;;;;;;5031837;28;20446;-50
2022/08/21 10:10:02;;;;;;;2.20;1.20;;;21.10;99.90;;;;;;5031864;28;20500;-51
2022/08/21 10:12:37;;;;;;;1.67;1.30;;;21.40;99.90;;;;;;5052109;22;21073;-49
2022/08/21 10:15:16;;;;;;;1.90;1.63;;;21.90;99.90;;;;;;5012091;28;20861;-50
2022/08/21 10:17:53;;;;;;;2.03;1.40;;;21.40;99.90;;;;;;5012111;28;20508;-49
2022/08/21 10:20:26;;;;;;;1.67;0.90;;;21.10;99.90;;;;;;5011704;28;21021;-49
2022/08/21 10:23:08;;;;;;;1.83;1.20;;;21.60;99.90;;;;;;5019915;28;20517;-49
2022/08/21 10:25:42;;;;;;;1.90;1.10;;;21.40;99.90;;;;;;5031735;28;20537;-50
2022/08/21 10:28:18;;;;;;;2.80;1.93;;;21.70;99.90;;;;;;5031561;28;20433;-50
2022/08/21 10:30:50;;;;;;;2.70;1.30;;;21.60;99.90;;;;;;5031382;28;20493;-51
2022/08/21 10:33:37;;;;;;;2.90;1.70;;;21.70;99.90;;;;;;5031457;28;21364;-49
2022/08/21 10:36:14;;;;;;;5.90;1.53;;;21.90;99.90;;;;;;5031327;28;20430;-49
2022/08/21 10:39:14;;;;;;;1.90;1.00;;;22.20;99.90;;;;;;5031369;28;20435;-49
2022/08/21 10:42:04;;;;;;;1.77;1.27;;;22.00;99.90;;;;;;5031376;28;20434;-49
2022/08/21 10:44:39;;;;;;;3.43;1.40;;;22.10;99.90;;;;;;5021076;28;20446;-50
2022/08/21 10:47:10;;;;;;;1.60;1.00;;;22.30;99.90;;;;;;5031131;28;20445;-51
2022/08/21 10:49:45;;;;;;;2.23;1.37;;;22.30;99.90;;;;;;5030785;28;20804;-49
2022/08/21 10:52:33;;;;;;;1.80;1.25;;;22.30;99.90;;;;;;5030832;28;20472;-49
2022/08/21 10:55:09;;;;;;;1.95;0.80;;;22.10;99.90;;;;;;5030879;28;20357;-49
2022/08/21 10:57:43;;;;;;;1.50;0.83;;;22.70;99.90;;;;;;5031025;28;20199;-48
2022/08/21 11:00:14;;;;;;;1.23;0.80;;;22.70;99.90;;;;;;5030690;28;20454;-48
2022/08/21 11:02:45;;;;;;;1.87;0.80;;;22.60;99.90;;;;;;5030792;28;20481;-50
2022/08/21 11:05:18;;;;;;;1.50;0.90;;;23.00;99.90;;;;;;5030918;28;20461;-49
2022/08/21 11:07:49;;;;;;;1.80;0.83;;;22.10;99.90;;;;;;5031181;28;20454;-49
2022/08/21 11:10:24;;;;;;;1.40;1.00;;;22.30;99.90;;;;;;5030609;28;20442;-51
2022/08/21 11:12:55;;;;;;;1.40;0.93;;;22.50;99.90;;;;;;5030558;28;21001;-49
2022/08/21 11:15:38;;;;;;;1.27;0.83;;;22.90;99.90;;;;;;5030765;28;20442;-50
2022/08/21 11:18:16;;;;;;;2.30;1.00;;;22.90;99.90;;;;;;5030666;28;20501;-50
2022/08/21 11:20:48;;;;;;;2.37;0.80;;;22.90;99.90;;;;;;5030334;28;20446;-49
2022/08/21 11:23:20;;;;;;;1.83;1.00;;;22.60;99.90;;;;;;5030253;28;20971;-49
2022/08/21 11:25:54;;;;;;;1.33;0.97;;;23.00;99.90;;;;;;5030223;28;20199;-50
2022/08/21 11:28:27;;;;;;;2.27;0.93;;;22.40;99.90;;;;;;5030574;28;21026;-51
2022/08/21 11:31:12;;;;;;;1.60;0.83;;;22.60;99.90;;;;;;5029230;28;20941;-49
2022/08/21 11:33:57;;;;;;;4.67;1.50;;;23.10;99.90;;;;;;5029688;28;20498;-49
2022/08/21 11:36:34;;;;;;;4.07;1.07;;;23.20;99.90;;;;;;5030203;28;20700;-49
2022/08/21 11:39:13;;;;;;;3.20;0.80;;;22.60;99.90;;;;;;5030177;28;20460;-53
2022/08/21 11:41:47;;;;;;;3.00;0.90;;;22.60;99.90;;;;;;5030157;28;20939;-49
2022/08/21 11:44:23;;;;;;;1.63;1.00;;;22.50;99.90;;;;;;5029979;28;20536;-48
2022/08/21 11:47:00;;;;;;;1.75;0.95;;;22.90;99.90;;;;;;5029920;28;20499;-49
2022/08/21 11:49:40;;;;;;;1.23;0.70;;;23.20;99.90;;;;;;5029788;28;20680;-50
2022/08/21 11:52:16;;;;;;;2.27;1.23;;;23.00;99.90;;;;;;5029733;28;21156;-48
2022/08/21 11:54:47;;;;;;;1.60;0.80;;;23.00;99.90;;;;;;5029970;28;20458;-49
2022/08/21 11:57:21;;;;;;;1.37;0.70;;;23.20;99.90;;;;;;5029509;28;20964;-49
2022/08/21 11:59:53;;;;;;;2.20;0.98;;;23.00;99.90;;;;;;5029665;28;20505;-49
2022/08/21 12:02:25;;;;;;;1.50;0.73;;;22.50;99.90;;;;;;5029856;28;20219;-49
2022/08/21 12:04:56;;;;;;;1.80;0.97;;;22.90;99.90;;;;;;5029884;28;20537;-49
2022/08/21 12:07:32;;;;;;;1.93;1.00;;;23.20;99.90;;;;;;5029040;28;20442;-49
2022/08/21 12:10:01;;;;;;;1.30;0.70;;;23.10;99.90;;;;;;5029610;28;20496;-50
2022/08/21 12:12:31;;;;;;;1.30;0.80;;;23.10;99.90;;;;;;5029590;28;20509;-49
2022/08/21 12:15:27;;;;;;;1.60;0.93;;;23.20;99.90;;;;;;5030234;28;20519;-49
2022/08/21 12:17:58;;;;;;;1.47;0.90;;;23.10;99.90;;;;;;5027985;28;20450;-50
2022/08/21 12:20:44;;;;;;;1.30;0.90;;;22.90;99.90;;;;;;5029579;28;20492;-49
2022/08/21 12:23:25;;;;;;;1.70;1.17;;;22.90;99.90;;;;;;5029480;28;20485;-51
2022/08/21 12:26:03;;;;;;;1.67;1.03;;;22.90;99.90;;;;;;5029481;28;20482;-49
2022/08/21 12:28:32;;;;;;;1.90;1.10;;;22.90;99.90;;;;;;5029814;28;20454;-50
2022/08/21 12:30:59;;;;;;;1.93;0.90;;;23.20;99.90;;;;;;5029176;28;20434;-51
2022/08/21 12:33:31;;;;;;;1.90;0.70;;;23.30;99.90;;;;;;5029631;28;20478;-48
2022/08/21 12:36:06;;;;;;;1.43;0.70;;;23.20;99.90;;;;;;5029701;28;20445;-49
2022/08/21 12:38:44;;;;;;;1.70;0.70;;;22.90;99.90;;;;;;5029819;28;20450;-48
2022/08/21 12:41:18;;;;;;;1.37;0.87;;;22.70;99.90;;;;;;5029379;28;20517;-50
2022/08/21 12:43:52;;;;;;;1.50;1.00;;;22.50;99.90;;;;;;5029493;28;20512;-49
2022/08/21 12:46:22;;;;;;;3.17;1.60;;;22.30;99.90;;;;;;5029037;28;20544;-49
2022/08/21 12:48:56;;;;;;;2.07;1.30;;;22.30;99.90;;;;;;5029281;28;20482;-50
2022/08/21 12:51:27;;;;;;;2.17;1.20;;;22.90;99.90;;;;;;5029148;28;20484;-49
2022/08/21 12:53:55;;;;;;;1.50;1.10;;;22.90;99.90;;;;;;5029117;28;20451;-49
2022/08/21 12:56:25;;;;;;;1.60;0.93;;;23.00;99.90;;;;;;5029435;28;20943;-50
2022/08/21 12:58:59;;;;;;;2.80;1.33;;;22.90;99.90;;;;;;5029046;28;20204;-49
2022/08/21 13:01:33;;;;;;;1.70;1.30;;;23.00;99.90;;;;;;5028835;28;20470;-52
2022/08/21 13:04:11;;;;;;;2.43;1.50;;;23.30;99.90;;;;;;5028464;28;20455;-49
2022/08/21 13:06:41;;;;;;;1.87;0.90;;;23.40;99.90;;;;;;5028997;28;20477;-49
2022/08/21 13:09:12;;;;;;;2.00;0.90;;;23.20;99.90;;;;;;5028927;28;20454;-49